sensor_id;sensor_type;location;lat;lon;timestamp;P1;durP1;ratioP1;P2;durP2;ratioP2
80623;SDS011;70269;44.768;9.600;2024-01-06T00:01:00;4.88;;;2.20;;
80623;SDS011;70269;44.768;9.600;2024-01-06T00:03:25;5.32;;;2.55;;
80623;SDS011;70269;44.768;9.600;2024-01-06T00:05:51;7.40;;;3.58;;
80623;SDS011;70269;44.768;9.600;2024-01-06T00:08:16;6.95;;;3.20;;
80623;SDS011;70269;44.768;9.600;2024-01-06T00:10:42;5.45;;;2.88;;
80623;SDS011;70269;44.768;9.600;2024-01-06T00:13:07;4.80;;;2.72;;
80623;SDS011;70269;44.768;9.600;2024-01-06T00:15:33;5.40;;;2.50;;
80623;SDS011;70269;44.768;9.600;2024-01-06T00:17:58;5.90;;;3.08;;
80623;SDS011;70269;44.768;9.600;2024-01-06T00:20:24;5.15;;;2.70;;
80623;SDS011;70269;44.768;9.600;2024-01-06T00:22:50;6.85;;;2.47;;
80623;SDS011;70269;44.768;9.600;2024-01-06T00:25:15;5.75;;;2.97;;
80623;SDS011;70269;44.768;9.600;2024-01-06T00:27:41;5.40;;;3.20;;
80623;SDS011;70269;44.768;9.600;2024-01-06T00:30:06;7.35;;;2.88;;
80623;SDS011;70269;44.768;9.600;2024-01-06T00:32:33;4.18;;;2.15;;
80623;SDS011;70269;44.768;9.600;2024-01-06T00:34:59;5.18;;;3.03;;
80623;SDS011;70269;44.768;9.600;2024-01-06T00:37:24;5.90;;;3.03;;
80623;SDS011;70269;44.768;9.600;2024-01-06T00:39:50;6.38;;;3.58;;
80623;SDS011;70269;44.768;9.600;2024-01-06T00:42:15;6.10;;;2.70;;
80623;SDS011;70269;44.768;9.600;2024-01-06T00:44:41;7.75;;;3.28;;
80623;SDS011;70269;44.768;9.600;2024-01-06T00:47:06;6.30;;;3.33;;
80623;SDS011;70269;44.768;9.600;2024-01-06T00:49:32;6.05;;;3.50;;
80623;SDS011;70269;44.768;9.600;2024-01-06T00:51:57;6.15;;;2.83;;
80623;SDS011;70269;44.768;9.600;2024-01-06T00:54:23;6.03;;;3.05;;
80623;SDS011;70269;44.768;9.600;2024-01-06T00:56:48;9.77;;;4.30;;
80623;SDS011;70269;44.768;9.600;2024-01-06T00:59:14;6.00;;;3.00;;
80623;SDS011;70269;44.768;9.600;2024-01-06T01:01:39;8.00;;;3.78;;
80623;SDS011;70269;44.768;9.600;2024-01-06T01:04:05;14.98;;;6.72;;
80623;SDS011;70269;44.768;9.600;2024-01-06T01:06:30;11.65;;;5.40;;
80623;SDS011;70269;44.768;9.600;2024-01-06T01:08:56;8.10;;;3.50;;
80623;SDS011;70269;44.768;9.600;2024-01-06T01:11:22;5.60;;;3.03;;
80623;SDS011;70269;44.768;9.600;2024-01-06T01:13:47;6.22;;;2.40;;
80623;SDS011;70269;44.768;9.600;2024-01-06T01:16:13;4.05;;;2.20;;
80623;SDS011;70269;44.768;9.600;2024-01-06T01:18:39;5.13;;;2.92;;
80623;SDS011;70269;44.768;9.600;2024-01-06T01:21:04;5.60;;;2.72;;
80623;SDS011;70269;44.768;9.600;2024-01-06T01:23:30;4.97;;;2.40;;
80623;SDS011;70269;44.768;9.600;2024-01-06T01:25:55;3.92;;;2.30;;
80623;SDS011;70269;44.768;9.600;2024-01-06T01:28:21;5.45;;;2.97;;
80623;SDS011;70269;44.768;9.600;2024-01-06T01:30:47;5.30;;;2.45;;
80623;SDS011;70269;44.768;9.600;2024-01-06T01:33:12;5.00;;;2.88;;
80623;SDS011;70269;44.768;9.600;2024-01-06T01:35:38;5.75;;;3.63;;
80623;SDS011;70269;44.768;9.600;2024-01-06T01:38:03;5.53;;;2.95;;
80623;SDS011;70269;44.768;9.600;2024-01-06T01:40:29;5.65;;;3.53;;
80623;SDS011;70269;44.768;9.600;2024-01-06T01:42:54;6.13;;;3.22;;
80623;SDS011;70269;44.768;9.600;2024-01-06T01:45:20;4.88;;;2.60;;
80623;SDS011;70269;44.768;9.600;2024-01-06T01:47:45;5.03;;;2.20;;
80623;SDS011;70269;44.768;9.600;2024-01-06T01:50:11;11.80;;;6.13;;
80623;SDS011;70269;44.768;9.600;2024-01-06T01:52:39;9.23;;;4.82;;
80623;SDS011;70269;44.768;9.600;2024-01-06T01:55:07;7.60;;;4.32;;
80623;SDS011;70269;44.768;9.600;2024-01-06T01:57:33;10.88;;;4.13;;
80623;SDS011;70269;44.768;9.600;2024-01-06T02:00:00;5.78;;;3.33;;
80623;SDS011;70269;44.768;9.600;2024-01-06T02:02:26;7.65;;;3.92;;
80623;SDS011;70269;44.768;9.600;2024-01-06T02:04:54;7.32;;;4.50;;
80623;SDS011;70269;44.768;9.600;2024-01-06T02:07:21;6.65;;;3.70;;
80623;SDS011;70269;44.768;9.600;2024-01-06T02:09:47;7.32;;;4.22;;
80623;SDS011;70269;44.768;9.600;2024-01-06T02:12:12;8.00;;;4.22;;
80623;SDS011;70269;44.768;9.600;2024-01-06T02:14:38;8.95;;;3.95;;
80623;SDS011;70269;44.768;9.600;2024-01-06T02:17:03;8.25;;;4.20;;
80623;SDS011;70269;44.768;9.600;2024-01-06T02:19:29;7.93;;;3.45;;
80623;SDS011;70269;44.768;9.600;2024-01-06T02:21:55;4.72;;;2.65;;
80623;SDS011;70269;44.768;9.600;2024-01-06T02:24:20;5.93;;;2.85;;
80623;SDS011;70269;44.768;9.600;2024-01-06T02:26:46;6.85;;;2.92;;
80623;SDS011;70269;44.768;9.600;2024-01-06T02:29:12;4.80;;;2.70;;
80623;SDS011;70269;44.768;9.600;2024-01-06T02:31:37;6.15;;;2.67;;
80623;SDS011;70269;44.768;9.600;2024-01-06T02:34:03;5.88;;;2.78;;
80623;SDS011;70269;44.768;9.600;2024-01-06T02:36:28;6.07;;;2.80;;
80623;SDS011;70269;44.768;9.600;2024-01-06T02:38:54;5.20;;;2.40;;
80623;SDS011;70269;44.768;9.600;2024-01-06T02:41:19;4.10;;;2.10;;
80623;SDS011;70269;44.768;9.600;2024-01-06T02:43:45;5.35;;;2.42;;
80623;SDS011;70269;44.768;9.600;2024-01-06T02:46:11;5.63;;;2.53;;
80623;SDS011;70269;44.768;9.600;2024-01-06T02:48:37;5.18;;;2.47;;
80623;SDS011;70269;44.768;9.600;2024-01-06T02:51:03;4.55;;;2.08;;
80623;SDS011;70269;44.768;9.600;2024-01-06T02:53:28;5.25;;;2.47;;
80623;SDS011;70269;44.768;9.600;2024-01-06T02:55:54;5.15;;;2.25;;
80623;SDS011;70269;44.768;9.600;2024-01-06T02:58:20;4.55;;;2.45;;
80623;SDS011;70269;44.768;9.600;2024-01-06T03:00:45;8.38;;;2.88;;
80623;SDS011;70269;44.768;9.600;2024-01-06T03:03:11;6.10;;;2.70;;
80623;SDS011;70269;44.768;9.600;2024-01-06T03:05:36;4.13;;;1.92;;
80623;SDS011;70269;44.768;9.600;2024-01-06T03:08:02;5.15;;;2.60;;
80623;SDS011;70269;44.768;9.600;2024-01-06T03:10:29;5.40;;;2.40;;
80623;SDS011;70269;44.768;9.600;2024-01-06T03:12:54;4.57;;;2.42;;
80623;SDS011;70269;44.768;9.600;2024-01-06T03:15:20;4.28;;;1.92;;
80623;SDS011;70269;44.768;9.600;2024-01-06T03:17:45;4.80;;;2.35;;
80623;SDS011;70269;44.768;9.600;2024-01-06T03:20:11;6.07;;;2.53;;
80623;SDS011;70269;44.768;9.600;2024-01-06T03:22:36;4.75;;;2.40;;
80623;SDS011;70269;44.768;9.600;2024-01-06T03:25:03;4.78;;;2.45;;
80623;SDS011;70269;44.768;9.600;2024-01-06T03:27:29;6.38;;;3.08;;
80623;SDS011;70269;44.768;9.600;2024-01-06T03:29:55;5.32;;;2.92;;
80623;SDS011;70269;44.768;9.600;2024-01-06T03:32:21;5.35;;;2.78;;
80623;SDS011;70269;44.768;9.600;2024-01-06T03:34:47;4.32;;;2.10;;
80623;SDS011;70269;44.768;9.600;2024-01-06T03:37:12;5.97;;;2.80;;
80623;SDS011;70269;44.768;9.600;2024-01-06T03:39:38;5.40;;;2.75;;
80623;SDS011;70269;44.768;9.600;2024-01-06T03:42:03;9.05;;;3.05;;
80623;SDS011;70269;44.768;9.600;2024-01-06T03:44:29;5.82;;;2.83;;
80623;SDS011;70269;44.768;9.600;2024-01-06T03:46:57;4.38;;;2.10;;
80623;SDS011;70269;44.768;9.600;2024-01-06T03:49:23;4.53;;;2.25;;
80623;SDS011;70269;44.768;9.600;2024-01-06T03:51:49;5.18;;;2.65;;
80623;SDS011;70269;44.768;9.600;2024-01-06T03:54:14;5.13;;;2.72;;
80623;SDS011;70269;44.768;9.600;2024-01-06T03:56:40;5.85;;;3.13;;
80623;SDS011;70269;44.768;9.600;2024-01-06T03:59:06;7.03;;;2.72;;
80623;SDS011;70269;44.768;9.600;2024-01-06T04:01:32;7.10;;;3.35;;
80623;SDS011;70269;44.768;9.600;2024-01-06T04:04:00;7.45;;;3.45;;
80623;SDS011;70269;44.768;9.600;2024-01-06T04:06:26;7.45;;;3.42;;
80623;SDS011;70269;44.768;9.600;2024-01-06T04:08:52;15.10;;;4.00;;
80623;SDS011;70269;44.768;9.600;2024-01-06T04:11:20;7.10;;;3.60;;
80623;SDS011;70269;44.768;9.600;2024-01-06T04:13:46;6.25;;;3.50;;
80623;SDS011;70269;44.768;9.600;2024-01-06T04:16:12;6.22;;;3.25;;
80623;SDS011;70269;44.768;9.600;2024-01-06T04:18:37;6.88;;;3.83;;
80623;SDS011;70269;44.768;9.600;2024-01-06T04:21:03;4.63;;;2.17;;
80623;SDS011;70269;44.768;9.600;2024-01-06T04:23:30;4.18;;;2.05;;
80623;SDS011;70269;44.768;9.600;2024-01-06T04:25:56;3.22;;;1.80;;
80623;SDS011;70269;44.768;9.600;2024-01-06T04:28:22;4.85;;;2.60;;
80623;SDS011;70269;44.768;9.600;2024-01-06T04:30:47;4.38;;;1.90;;
80623;SDS011;70269;44.768;9.600;2024-01-06T04:33:13;4.32;;;1.92;;
80623;SDS011;70269;44.768;9.600;2024-01-06T04:35:39;4.60;;;2.22;;
80623;SDS011;70269;44.768;9.600;2024-01-06T04:38:04;4.72;;;1.50;;
80623;SDS011;70269;44.768;9.600;2024-01-06T04:40:30;3.17;;;1.80;;
80623;SDS011;70269;44.768;9.600;2024-01-06T04:42:56;4.53;;;2.00;;
80623;SDS011;70269;44.768;9.600;2024-01-06T04:45:21;5.03;;;2.08;;
80623;SDS011;70269;44.768;9.600;2024-01-06T04:47:49;4.88;;;1.83;;
80623;SDS011;70269;44.768;9.600;2024-01-06T04:50:15;3.03;;;1.58;;
80623;SDS011;70269;44.768;9.600;2024-01-06T04:52:41;3.38;;;1.60;;
80623;SDS011;70269;44.768;9.600;2024-01-06T04:55:07;5.10;;;1.58;;
80623;SDS011;70269;44.768;9.600;2024-01-06T04:57:33;3.75;;;2.15;;
80623;SDS011;70269;44.768;9.600;2024-01-06T04:59:58;4.72;;;2.20;;
80623;SDS011;70269;44.768;9.600;2024-01-06T05:02:25;4.43;;;1.83;;
80623;SDS011;70269;44.768;9.600;2024-01-06T05:04:51;4.65;;;1.60;;
80623;SDS011;70269;44.768;9.600;2024-01-06T05:07:16;4.32;;;2.20;;
80623;SDS011;70269;44.768;9.600;2024-01-06T05:09:42;3.47;;;1.65;;
80623;SDS011;70269;44.768;9.600;2024-01-06T05:12:07;4.50;;;1.55;;
80623;SDS011;70269;44.768;9.600;2024-01-06T05:14:33;4.07;;;1.90;;
80623;SDS011;70269;44.768;9.600;2024-01-06T05:16:59;3.90;;;1.90;;
80623;SDS011;70269;44.768;9.600;2024-01-06T05:19:24;4.05;;;1.80;;
80623;SDS011;70269;44.768;9.600;2024-01-06T05:21:50;5.70;;;2.72;;
80623;SDS011;70269;44.768;9.600;2024-01-06T05:24:16;7.05;;;2.67;;
80623;SDS011;70269;44.768;9.600;2024-01-06T05:26:43;3.75;;;1.75;;
80623;SDS011;70269;44.768;9.600;2024-01-06T05:29:08;5.00;;;2.33;;
80623;SDS011;70269;44.768;9.600;2024-01-06T05:31:34;5.30;;;2.53;;
80623;SDS011;70269;44.768;9.600;2024-01-06T05:33:59;5.38;;;2.92;;
80623;SDS011;70269;44.768;9.600;2024-01-06T05:36:25;6.00;;;3.30;;
80623;SDS011;70269;44.768;9.600;2024-01-06T05:38:51;6.78;;;2.45;;
80623;SDS011;70269;44.768;9.600;2024-01-06T05:41:16;9.15;;;3.90;;
80623;SDS011;70269;44.768;9.600;2024-01-06T05:43:42;9.75;;;3.28;;
80623;SDS011;70269;44.768;9.600;2024-01-06T05:46:07;11.07;;;4.10;;
80623;SDS011;70269;44.768;9.600;2024-01-06T05:48:33;11.43;;;4.28;;
80623;SDS011;70269;44.768;9.600;2024-01-06T05:50:59;5.25;;;3.28;;
80623;SDS011;70269;44.768;9.600;2024-01-06T05:53:24;5.95;;;2.63;;
80623;SDS011;70269;44.768;9.600;2024-01-06T05:55:50;4.47;;;2.10;;
80623;SDS011;70269;44.768;9.600;2024-01-06T05:58:16;6.60;;;2.78;;
80623;SDS011;70269;44.768;9.600;2024-01-06T06:00:41;5.53;;;2.38;;
80623;SDS011;70269;44.768;9.600;2024-01-06T06:03:07;4.38;;;2.13;;
80623;SDS011;70269;44.768;9.600;2024-01-06T06:05:33;5.30;;;2.15;;
80623;SDS011;70269;44.768;9.600;2024-01-06T06:07:58;5.47;;;1.90;;
80623;SDS011;70269;44.768;9.600;2024-01-06T06:10:24;4.90;;;2.20;;
80623;SDS011;70269;44.768;9.600;2024-01-06T06:12:55;4.80;;;2.00;;
80623;SDS011;70269;44.768;9.600;2024-01-06T06:15:20;4.32;;;2.10;;
80623;SDS011;70269;44.768;9.600;2024-01-06T06:17:46;4.95;;;2.08;;
80623;SDS011;70269;44.768;9.600;2024-01-06T06:20:12;4.53;;;2.10;;
80623;SDS011;70269;44.768;9.600;2024-01-06T06:22:37;4.85;;;2.20;;
80623;SDS011;70269;44.768;9.600;2024-01-06T06:25:03;4.75;;;2.65;;
80623;SDS011;70269;44.768;9.600;2024-01-06T06:27:29;4.13;;;1.75;;
80623;SDS011;70269;44.768;9.600;2024-01-06T06:29:54;4.43;;;2.28;;
80623;SDS011;70269;44.768;9.600;2024-01-06T06:34:50;2.92;;;1.52;;
80623;SDS011;70269;44.768;9.600;2024-01-06T06:37:16;5.07;;;2.42;;
80623;SDS011;70269;44.768;9.600;2024-01-06T06:39:42;5.80;;;2.70;;
80623;SDS011;70269;44.768;9.600;2024-01-06T06:42:09;5.30;;;2.65;;
80623;SDS011;70269;44.768;9.600;2024-01-06T06:44:35;5.63;;;2.75;;
80623;SDS011;70269;44.768;9.600;2024-01-06T06:47:01;9.02;;;2.47;;
80623;SDS011;70269;44.768;9.600;2024-01-06T06:49:27;6.78;;;2.30;;
80623;SDS011;70269;44.768;9.600;2024-01-06T06:51:52;5.47;;;2.40;;
80623;SDS011;70269;44.768;9.600;2024-01-06T06:54:18;5.30;;;2.63;;
80623;SDS011;70269;44.768;9.600;2024-01-06T06:56:43;5.57;;;2.58;;
80623;SDS011;70269;44.768;9.600;2024-01-06T06:59:09;6.40;;;3.75;;
80623;SDS011;70269;44.768;9.600;2024-01-06T07:01:35;6.78;;;3.65;;
80623;SDS011;70269;44.768;9.600;2024-01-06T07:04:01;5.38;;;3.15;;
80623;SDS011;70269;44.768;9.600;2024-01-06T07:06:27;4.80;;;2.30;;
80623;SDS011;70269;44.768;9.600;2024-01-06T07:08:54;5.95;;;2.53;;
80623;SDS011;70269;44.768;9.600;2024-01-06T07:11:20;6.68;;;2.78;;
80623;SDS011;70269;44.768;9.600;2024-01-06T07:13:46;4.35;;;2.22;;
80623;SDS011;70269;44.768;9.600;2024-01-06T07:16:12;4.80;;;2.47;;
80623;SDS011;70269;44.768;9.600;2024-01-06T07:18:37;3.85;;;2.40;;
80623;SDS011;70269;44.768;9.600;2024-01-06T07:21:06;4.68;;;2.35;;
80623;SDS011;70269;44.768;9.600;2024-01-06T07:23:32;5.15;;;2.05;;
80623;SDS011;70269;44.768;9.600;2024-01-06T07:25:58;4.75;;;2.63;;
80623;SDS011;70269;44.768;9.600;2024-01-06T07:28:24;6.38;;;3.53;;
80623;SDS011;70269;44.768;9.600;2024-01-06T07:30:49;9.30;;;4.72;;
80623;SDS011;70269;44.768;9.600;2024-01-06T07:33:15;6.22;;;3.33;;
80623;SDS011;70269;44.768;9.600;2024-01-06T07:35:41;5.13;;;2.65;;
80623;SDS011;70269;44.768;9.600;2024-01-06T07:38:11;6.25;;;2.55;;
80623;SDS011;70269;44.768;9.600;2024-01-06T07:40:37;7.53;;;2.83;;
80623;SDS011;70269;44.768;9.600;2024-01-06T07:43:03;6.93;;;2.65;;
80623;SDS011;70269;44.768;9.600;2024-01-06T07:45:30;5.68;;;2.90;;
80623;SDS011;70269;44.768;9.600;2024-01-06T07:47:57;6.90;;;3.78;;
80623;SDS011;70269;44.768;9.600;2024-01-06T07:50:23;10.10;;;4.63;;
80623;SDS011;70269;44.768;9.600;2024-01-06T07:52:48;8.13;;;4.40;;
80623;SDS011;70269;44.768;9.600;2024-01-06T07:55:14;7.80;;;4.95;;
80623;SDS011;70269;44.768;9.600;2024-01-06T07:57:40;8.95;;;5.15;;
80623;SDS011;70269;44.768;9.600;2024-01-06T08:00:05;9.55;;;5.35;;
80623;SDS011;70269;44.768;9.600;2024-01-06T08:02:37;7.65;;;4.13;;
80623;SDS011;70269;44.768;9.600;2024-01-06T08:05:03;9.52;;;4.13;;
80623;SDS011;70269;44.768;9.600;2024-01-06T08:07:28;7.18;;;4.47;;
80623;SDS011;70269;44.768;9.600;2024-01-06T08:09:54;10.10;;;5.20;;
80623;SDS011;70269;44.768;9.600;2024-01-06T08:12:19;10.73;;;5.07;;
80623;SDS011;70269;44.768;9.600;2024-01-06T08:14:45;7.20;;;3.80;;
80623;SDS011;70269;44.768;9.600;2024-01-06T08:17:10;6.35;;;4.05;;
80623;SDS011;70269;44.768;9.600;2024-01-06T08:19:36;10.50;;;4.30;;
80623;SDS011;70269;44.768;9.600;2024-01-06T08:22:02;11.07;;;6.70;;
80623;SDS011;70269;44.768;9.600;2024-01-06T09:07:41;9.07;;;4.70;;
80623;SDS011;70269;44.768;9.600;2024-01-06T09:10:08;7.05;;;3.50;;
80623;SDS011;70269;44.768;9.600;2024-01-06T09:12:35;9.02;;;3.40;;
80623;SDS011;70269;44.768;9.600;2024-01-06T09:15:00;6.72;;;3.47;;
80623;SDS011;70269;44.768;9.600;2024-01-06T09:17:26;8.95;;;4.25;;
80623;SDS011;70269;44.768;9.600;2024-01-06T09:19:51;10.15;;;4.40;;
80623;SDS011;70269;44.768;9.600;2024-01-06T09:22:19;11.43;;;4.53;;
80623;SDS011;70269;44.768;9.600;2024-01-06T09:24:44;6.35;;;3.60;;
80623;SDS011;70269;44.768;9.600;2024-01-06T09:27:10;5.57;;;3.17;;
80623;SDS011;70269;44.768;9.600;2024-01-06T09:29:35;5.95;;;2.90;;
80623;SDS011;70269;44.768;9.600;2024-01-06T09:32:01;4.25;;;2.60;;
80623;SDS011;70269;44.768;9.600;2024-01-06T09:34:27;5.95;;;2.90;;
80623;SDS011;70269;44.768;9.600;2024-01-06T09:36:52;6.20;;;2.50;;
80623;SDS011;70269;44.768;9.600;2024-01-06T09:39:18;5.65;;;2.58;;
80623;SDS011;70269;44.768;9.600;2024-01-06T09:41:44;8.32;;;2.95;;
80623;SDS011;70269;44.768;9.600;2024-01-06T09:44:09;6.90;;;3.22;;
80623;SDS011;70269;44.768;9.600;2024-01-06T09:46:35;7.28;;;3.20;;
80623;SDS011;70269;44.768;9.600;2024-01-06T09:49:02;5.82;;;3.22;;
80623;SDS011;70269;44.768;9.600;2024-01-06T09:51:28;4.72;;;2.80;;
80623;SDS011;70269;44.768;9.600;2024-01-06T09:53:57;7.43;;;3.30;;
80623;SDS011;70269;44.768;9.600;2024-01-06T09:56:25;7.03;;;3.38;;
80623;SDS011;70269;44.768;9.600;2024-01-06T09:58:53;5.60;;;3.20;;
80623;SDS011;70269;44.768;9.600;2024-01-06T10:01:19;6.15;;;2.65;;
80623;SDS011;70269;44.768;9.600;2024-01-06T10:03:45;5.15;;;3.08;;
80623;SDS011;70269;44.768;9.600;2024-01-06T10:06:11;8.10;;;3.90;;
80623;SDS011;70269;44.768;9.600;2024-01-06T10:08:38;8.02;;;4.18;;
80623;SDS011;70269;44.768;9.600;2024-01-06T10:11:06;7.93;;;4.30;;
80623;SDS011;70269;44.768;9.600;2024-01-06T10:13:35;6.80;;;3.40;;
80623;SDS011;70269;44.768;9.600;2024-01-06T10:16:03;5.93;;;2.97;;
80623;SDS011;70269;44.768;9.600;2024-01-06T10:18:30;6.38;;;3.38;;
80623;SDS011;70269;44.768;9.600;2024-01-06T10:20:56;5.97;;;2.55;;
80623;SDS011;70269;44.768;9.600;2024-01-06T10:23:22;6.03;;;2.17;;
80623;SDS011;70269;44.768;9.600;2024-01-06T10:25:52;4.78;;;2.50;;
80623;SDS011;70269;44.768;9.600;2024-01-06T10:28:20;6.50;;;3.10;;
80623;SDS011;70269;44.768;9.600;2024-01-06T10:33:14;5.93;;;2.95;;
80623;SDS011;70269;44.768;9.600;2024-01-06T10:35:40;4.88;;;2.45;;
80623;SDS011;70269;44.768;9.600;2024-01-06T10:38:06;4.57;;;2.20;;
80623;SDS011;70269;44.768;9.600;2024-01-06T10:40:32;4.90;;;2.00;;
80623;SDS011;70269;44.768;9.600;2024-01-06T10:42:59;4.47;;;2.13;;
80623;SDS011;70269;44.768;9.600;2024-01-06T10:45:26;3.22;;;1.77;;
80623;SDS011;70269;44.768;9.600;2024-01-06T10:47:54;3.97;;;1.50;;
80623;SDS011;70269;44.768;9.600;2024-01-06T10:50:20;2.97;;;1.35;;
80623;SDS011;70269;44.768;9.600;2024-01-06T10:52:47;6.18;;;1.50;;
80623;SDS011;70269;44.768;9.600;2024-01-06T10:55:14;2.17;;;0.95;;
80623;SDS011;70269;44.768;9.600;2024-01-06T10:57:43;4.85;;;1.30;;
80623;SDS011;70269;44.768;9.600;2024-01-06T11:00:09;3.53;;;1.20;;
80623;SDS011;70269;44.768;9.600;2024-01-06T11:02:35;3.63;;;1.60;;
80623;SDS011;70269;44.768;9.600;2024-01-06T11:05:02;2.90;;;1.30;;
80623;SDS011;70269;44.768;9.600;2024-01-06T11:07:31;3.08;;;1.38;;
80623;SDS011;70269;44.768;9.600;2024-01-06T11:09:57;3.97;;;2.15;;
80623;SDS011;70269;44.768;9.600;2024-01-06T11:12:27;3.88;;;1.20;;
80623;SDS011;70269;44.768;9.600;2024-01-06T11:14:53;4.78;;;1.50;;
80623;SDS011;70269;44.768;9.600;2024-01-06T11:20:21;2.88;;;1.20;;
80623;SDS011;70269;44.768;9.600;2024-01-06T11:22:48;3.08;;;1.60;;
80623;SDS011;70269;44.768;9.600;2024-01-06T11:25:17;4.20;;;2.08;;
80623;SDS011;70269;44.768;9.600;2024-01-06T11:27:45;4.15;;;2.13;;
80623;SDS011;70269;44.768;9.600;2024-01-06T11:30:20;5.70;;;2.13;;
80623;SDS011;70269;44.768;9.600;2024-01-06T11:32:45;4.43;;;1.80;;
80623;SDS011;70269;44.768;9.600;2024-01-06T11:35:13;6.13;;;2.53;;
80623;SDS011;70269;44.768;9.600;2024-01-06T11:40:09;5.90;;;3.45;;
80623;SDS011;70269;44.768;9.600;2024-01-06T11:45:07;3.25;;;1.58;;
80623;SDS011;70269;44.768;9.600;2024-01-06T11:47:33;6.15;;;2.17;;
80623;SDS011;70269;44.768;9.600;2024-01-06T11:50:00;4.82;;;2.55;;
80623;SDS011;70269;44.768;9.600;2024-01-06T11:52:30;4.25;;;2.20;;
80623;SDS011;70269;44.768;9.600;2024-01-06T11:54:59;2.58;;;1.40;;
80623;SDS011;70269;44.768;9.600;2024-01-06T11:57:28;2.45;;;1.17;;
80623;SDS011;70269;44.768;9.600;2024-01-06T11:59:54;4.95;;;1.17;;
80623;SDS011;70269;44.768;9.600;2024-01-06T12:06:07;2.15;;;1.20;;
80623;SDS011;70269;44.768;9.600;2024-01-06T12:08:32;5.60;;;2.78;;
80623;SDS011;70269;44.768;9.600;2024-01-06T12:11:01;6.43;;;2.50;;
80623;SDS011;70269;44.768;9.600;2024-01-06T12:13:31;5.70;;;2.63;;
80623;SDS011;70269;44.768;9.600;2024-01-06T12:15:56;4.65;;;2.40;;
80623;SDS011;70269;44.768;9.600;2024-01-06T12:18:22;4.00;;;1.80;;
80623;SDS011;70269;44.768;9.600;2024-01-06T12:20:49;4.22;;;1.90;;
80623;SDS011;70269;44.768;9.600;2024-01-06T12:23:28;4.88;;;1.92;;
80623;SDS011;70269;44.768;9.600;2024-01-06T12:25:55;4.57;;;2.47;;
80623;SDS011;70269;44.768;9.600;2024-01-06T12:28:21;4.07;;;2.03;;
80623;SDS011;70269;44.768;9.600;2024-01-06T12:30:47;3.53;;;1.67;;
80623;SDS011;70269;44.768;9.600;2024-01-06T12:33:12;3.65;;;1.80;;
80623;SDS011;70269;44.768;9.600;2024-01-06T12:35:39;3.60;;;1.80;;
80623;SDS011;70269;44.768;9.600;2024-01-06T12:38:07;4.45;;;2.40;;
80623;SDS011;70269;44.768;9.600;2024-01-06T12:40:35;4.20;;;1.65;;
80623;SDS011;70269;44.768;9.600;2024-01-06T12:43:00;5.03;;;2.20;;
80623;SDS011;70269;44.768;9.600;2024-01-06T12:45:26;4.38;;;2.28;;
80623;SDS011;70269;44.768;9.600;2024-01-06T12:47:53;3.20;;;1.98;;
80623;SDS011;70269;44.768;9.600;2024-01-06T12:50:19;3.95;;;1.70;;
80623;SDS011;70269;44.768;9.600;2024-01-06T12:52:45;3.50;;;1.67;;
80623;SDS011;70269;44.768;9.600;2024-01-06T12:55:11;5.47;;;2.08;;
80623;SDS011;70269;44.768;9.600;2024-01-06T12:57:36;5.40;;;1.73;;
80623;SDS011;70269;44.768;9.600;2024-01-06T13:00:03;3.45;;;1.73;;
80623;SDS011;70269;44.768;9.600;2024-01-06T13:02:31;3.33;;;1.38;;
80623;SDS011;70269;44.768;9.600;2024-01-06T13:04:56;2.65;;;1.42;;
80623;SDS011;70269;44.768;9.600;2024-01-06T13:07:23;2.78;;;1.15;;
80623;SDS011;70269;44.768;9.600;2024-01-06T13:09:48;3.47;;;1.35;;
80623;SDS011;70269;44.768;9.600;2024-01-06T13:12:15;3.42;;;1.25;;
80623;SDS011;70269;44.768;9.600;2024-01-06T13:14:43;3.65;;;1.80;;
80623;SDS011;70269;44.768;9.600;2024-01-06T13:19:39;9.50;;;3.75;;
80623;SDS011;70269;44.768;9.600;2024-01-06T13:22:04;6.63;;;3.53;;
80623;SDS011;70269;44.768;9.600;2024-01-06T13:24:30;6.05;;;3.20;;
80623;SDS011;70269;44.768;9.600;2024-01-06T13:26:56;4.38;;;2.30;;
80623;SDS011;70269;44.768;9.600;2024-01-06T13:29:24;5.32;;;2.63;;
80623;SDS011;70269;44.768;9.600;2024-01-06T13:31:50;5.38;;;2.28;;
80623;SDS011;70269;44.768;9.600;2024-01-06T13:34:15;6.38;;;3.13;;
80623;SDS011;70269;44.768;9.600;2024-01-06T13:36:41;6.18;;;2.78;;
80623;SDS011;70269;44.768;9.600;2024-01-06T13:39:06;5.85;;;2.92;;
80623;SDS011;70269;44.768;9.600;2024-01-06T13:41:32;5.20;;;3.00;;
80623;SDS011;70269;44.768;9.600;2024-01-06T13:43:58;6.97;;;3.67;;
80623;SDS011;70269;44.768;9.600;2024-01-06T13:46:23;10.60;;;4.88;;
80623;SDS011;70269;44.768;9.600;2024-01-06T13:48:50;7.40;;;4.40;;
80623;SDS011;70269;44.768;9.600;2024-01-06T13:51:15;8.63;;;5.18;;
80623;SDS011;70269;44.768;9.600;2024-01-06T13:53:41;10.55;;;5.28;;
80623;SDS011;70269;44.768;9.600;2024-01-06T13:56:07;13.45;;;7.05;;
80623;SDS011;70269;44.768;9.600;2024-01-06T13:58:35;12.23;;;6.95;;
80623;SDS011;70269;44.768;9.600;2024-01-06T14:03:29;10.18;;;6.50;;
80623;SDS011;70269;44.768;9.600;2024-01-06T14:05:55;8.85;;;6.13;;
80623;SDS011;70269;44.768;9.600;2024-01-06T14:08:20;11.20;;;5.90;;
80623;SDS011;70269;44.768;9.600;2024-01-06T14:10:46;11.43;;;5.38;;
80623;SDS011;70269;44.768;9.600;2024-01-06T14:13:11;8.73;;;5.10;;
80623;SDS011;70269;44.768;9.600;2024-01-06T14:15:37;12.27;;;6.43;;
80623;SDS011;70269;44.768;9.600;2024-01-06T14:18:03;11.50;;;7.05;;
80623;SDS011;70269;44.768;9.600;2024-01-06T14:20:29;12.05;;;6.65;;
80623;SDS011;70269;44.768;9.600;2024-01-06T14:22:56;10.10;;;6.15;;
80623;SDS011;70269;44.768;9.600;2024-01-06T14:25:22;11.95;;;6.68;;
80623;SDS011;70269;44.768;9.600;2024-01-06T14:27:48;16.50;;;9.38;;
80623;SDS011;70269;44.768;9.600;2024-01-06T14:30:13;12.35;;;6.32;;
80623;SDS011;70269;44.768;9.600;2024-01-06T14:32:39;11.13;;;6.22;;
80623;SDS011;70269;44.768;9.600;2024-01-06T14:35:06;11.80;;;6.97;;
80623;SDS011;70269;44.768;9.600;2024-01-06T14:37:32;11.02;;;6.10;;
80623;SDS011;70269;44.768;9.600;2024-01-06T14:39:58;14.80;;;6.60;;
80623;SDS011;70269;44.768;9.600;2024-01-06T14:42:24;12.85;;;6.47;;
80623;SDS011;70269;44.768;9.600;2024-01-06T14:44:49;9.30;;;5.47;;
80623;SDS011;70269;44.768;9.600;2024-01-06T14:47:15;10.52;;;5.20;;
80623;SDS011;70269;44.768;9.600;2024-01-06T14:49:41;9.40;;;5.32;;
80623;SDS011;70269;44.768;9.600;2024-01-06T14:52:06;8.20;;;4.57;;
80623;SDS011;70269;44.768;9.600;2024-01-06T14:54:32;9.05;;;5.25;;
80623;SDS011;70269;44.768;9.600;2024-01-06T14:57:00;9.80;;;4.70;;
80623;SDS011;70269;44.768;9.600;2024-01-06T14:59:25;10.52;;;5.93;;
80623;SDS011;70269;44.768;9.600;2024-01-06T15:01:51;11.05;;;5.90;;
80623;SDS011;70269;44.768;9.600;2024-01-06T15:04:16;13.88;;;6.57;;
80623;SDS011;70269;44.768;9.600;2024-01-06T15:06:43;10.23;;;6.13;;
80623;SDS011;70269;44.768;9.600;2024-01-06T15:09:09;17.10;;;8.77;;
80623;SDS011;70269;44.768;9.600;2024-01-06T15:11:35;17.70;;;9.90;;
80623;SDS011;70269;44.768;9.600;2024-01-06T15:14:01;14.93;;;8.35;;
80623;SDS011;70269;44.768;9.600;2024-01-06T15:18:55;15.52;;;7.82;;
80623;SDS011;70269;44.768;9.600;2024-01-06T15:21:23;13.18;;;6.57;;
80623;SDS011;70269;44.768;9.600;2024-01-06T15:23:50;11.02;;;6.18;;
80623;SDS011;70269;44.768;9.600;2024-01-06T15:26:25;23.48;;;7.97;;
80623;SDS011;70269;44.768;9.600;2024-01-06T15:31:17;16.73;;;8.00;;
80623;SDS011;70269;44.768;9.600;2024-01-06T15:33:42;17.35;;;8.00;;
80623;SDS011;70269;44.768;9.600;2024-01-06T15:36:08;11.43;;;6.40;;
80623;SDS011;70269;44.768;9.600;2024-01-06T15:38:34;14.73;;;6.30;;
80623;SDS011;70269;44.768;9.600;2024-01-06T15:41:00;13.25;;;6.85;;
80623;SDS011;70269;44.768;9.600;2024-01-06T15:43:26;11.98;;;7.95;;
80623;SDS011;70269;44.768;9.600;2024-01-06T15:45:51;20.13;;;8.93;;
80623;SDS011;70269;44.768;9.600;2024-01-06T15:48:19;12.95;;;7.50;;